sensor_id;sensor_type;location;lat;lon;timestamp;P1;durP1;ratioP1;P2;durP2;ratioP2
18194;SDS011;9223;50.988;3.162;2023-03-15T00:02:26;2.50;;;0.80;;
18194;SDS011;9223;50.988;3.162;2023-03-15T00:08:30;2.33;;;1.30;;
18194;SDS011;9223;50.988;3.162;2023-03-15T00:14:36;3.35;;;1.25;;
18194;SDS011;9223;50.988;3.162;2023-03-15T00:20:40;6.05;;;3.40;;
18194;SDS011;9223;50.988;3.162;2023-03-15T00:26:43;1.85;;;0.93;;
18194;SDS011;9223;50.988;3.162;2023-03-15T00:32:48;3.78;;;1.42;;
18194;SDS011;9223;50.988;3.162;2023-03-15T00:38:54;3.50;;;1.17;;
18194;SDS011;9223;50.988;3.162;2023-03-15T00:44:58;4.47;;;1.60;;
18194;SDS011;9223;50.988;3.162;2023-03-15T00:51:05;2.75;;;1.40;;
18194;SDS011;9223;50.988;3.162;2023-03-15T00:57:08;4.93;;;1.23;;
18194;SDS011;9223;50.988;3.162;2023-03-15T01:03:12;2.25;;;1.33;;
18194;SDS011;9223;50.988;3.162;2023-03-15T01:09:17;3.80;;;1.30;;
18194;SDS011;9223;50.988;3.162;2023-03-15T01:15:20;4.47;;;1.65;;
18194;SDS011;9223;50.988;3.162;2023-03-15T01:21:25;3.80;;;1.50;;
18194;SDS011;9223;50.988;3.162;2023-03-15T01:27:29;3.30;;;1.70;;
18194;SDS011;9223;50.988;3.162;2023-03-15T01:33:34;3.55;;;1.67;;
18194;SDS011;9223;50.988;3.162;2023-03-15T01:39:37;4.40;;;1.40;;
18194;SDS011;9223;50.988;3.162;2023-03-15T01:45:55;4.57;;;1.92;;
18194;SDS011;9223;50.988;3.162;2023-03-15T01:52:01;4.30;;;1.85;;
18194;SDS011;9223;50.988;3.162;2023-03-15T01:58:07;3.58;;;1.92;;
18194;SDS011;9223;50.988;3.162;2023-03-15T02:04:14;3.55;;;2.00;;
18194;SDS011;9223;50.988;3.162;2023-03-15T02:10:19;4.50;;;1.70;;
18194;SDS011;9223;50.988;3.162;2023-03-15T02:16:25;5.20;;;1.40;;
18194;SDS011;9223;50.988;3.162;2023-03-15T02:22:31;2.78;;;1.67;;
18194;SDS011;9223;50.988;3.162;2023-03-15T02:28:39;5.97;;;1.85;;
18194;SDS011;9223;50.988;3.162;2023-03-15T02:34:43;3.33;;;1.52;;
18194;SDS011;9223;50.988;3.162;2023-03-15T02:40:46;2.03;;;1.60;;
18194;SDS011;9223;50.988;3.162;2023-03-15T02:46:52;3.85;;;1.70;;
18194;SDS011;9223;50.988;3.162;2023-03-15T02:52:57;2.67;;;1.40;;
18194;SDS011;9223;50.988;3.162;2023-03-15T02:59:00;2.70;;;1.20;;
18194;SDS011;9223;50.988;3.162;2023-03-15T03:05:06;1.30;;;1.02;;
18194;SDS011;9223;50.988;3.162;2023-03-15T03:11:09;3.75;;;1.50;;
18194;SDS011;9223;50.988;3.162;2023-03-15T03:17:13;1.63;;;1.30;;
18194;SDS011;9223;50.988;3.162;2023-03-15T03:23:18;2.40;;;1.42;;
18194;SDS011;9223;50.988;3.162;2023-03-15T03:29:21;4.03;;;1.52;;
18194;SDS011;9223;50.988;3.162;2023-03-15T03:35:25;3.70;;;1.58;;
18194;SDS011;9223;50.988;3.162;2023-03-15T03:41:30;1.55;;;1.10;;
18194;SDS011;9223;50.988;3.162;2023-03-15T03:47:33;0.90;;;0.82;;
18194;SDS011;9223;50.988;3.162;2023-03-15T03:53:36;2.00;;;0.70;;
18194;SDS011;9223;50.988;3.162;2023-03-15T03:59:41;1.48;;;0.60;;
18194;SDS011;9223;50.988;3.162;2023-03-15T04:05:45;1.73;;;0.60;;
18194;SDS011;9223;50.988;3.162;2023-03-15T04:11:48;0.98;;;0.70;;
18194;SDS011;9223;50.988;3.162;2023-03-15T04:17:53;1.30;;;0.95;;
18194;SDS011;9223;50.988;3.162;2023-03-15T04:23:57;0.88;;;0.70;;
18194;SDS011;9223;50.988;3.162;2023-03-15T04:30:00;1.25;;;0.80;;
18194;SDS011;9223;50.988;3.162;2023-03-15T04:36:07;1.25;;;0.90;;
18194;SDS011;9223;50.988;3.162;2023-03-15T04:42:19;3.42;;;0.85;;
18194;SDS011;9223;50.988;3.162;2023-03-15T04:48:23;1.55;;;1.23;;
18194;SDS011;9223;50.988;3.162;2023-03-15T04:54:28;1.30;;;0.95;;
18194;SDS011;9223;50.988;3.162;2023-03-15T05:00:31;1.90;;;1.20;;
18194;SDS011;9223;50.988;3.162;2023-03-15T05:06:35;3.10;;;1.20;;
18194;SDS011;9223;50.988;3.162;2023-03-15T05:12:40;1.35;;;0.90;;
18194;SDS011;9223;50.988;3.162;2023-03-15T05:18:43;2.15;;;1.10;;
18194;SDS011;9223;50.988;3.162;2023-03-15T05:24:47;2.08;;;1.08;;
18194;SDS011;9223;50.988;3.162;2023-03-15T05:30:52;1.60;;;1.15;;
18194;SDS011;9223;50.988;3.162;2023-03-15T05:36:55;1.75;;;1.08;;
18194;SDS011;9223;50.988;3.162;2023-03-15T05:42:59;3.40;;;1.50;;
18194;SDS011;9223;50.988;3.162;2023-03-15T05:49:04;3.35;;;1.10;;
18194;SDS011;9223;50.988;3.162;2023-03-15T05:55:07;5.10;;;1.30;;
18194;SDS011;9223;50.988;3.162;2023-03-15T06:01:11;1.88;;;1.10;;
18194;SDS011;9223;50.988;3.162;2023-03-15T06:07:16;1.73;;;1.48;;
18194;SDS011;9223;50.988;3.162;2023-03-15T06:13:21;1.83;;;1.48;;
18194;SDS011;9223;50.988;3.162;2023-03-15T06:19:25;2.67;;;1.52;;
18194;SDS011;9223;50.988;3.162;2023-03-15T06:25:29;3.33;;;1.35;;
18194;SDS011;9223;50.988;3.162;2023-03-15T06:31:33;4.30;;;1.77;;
18194;SDS011;9223;50.988;3.162;2023-03-15T06:37:36;2.88;;;2.42;;
18194;SDS011;9223;50.988;3.162;2023-03-15T06:43:41;8.27;;;5.78;;
18194;SDS011;9223;50.988;3.162;2023-03-15T06:49:45;6.95;;;4.53;;
18194;SDS011;9223;50.988;3.162;2023-03-15T06:55:50;4.25;;;3.30;;
18194;SDS011;9223;50.988;3.162;2023-03-15T07:01:55;4.85;;;3.00;;
18194;SDS011;9223;50.988;3.162;2023-03-15T07:07:58;3.50;;;2.50;;
18194;SDS011;9223;50.988;3.162;2023-03-15T07:14:02;4.88;;;3.65;;
18194;SDS011;9223;50.988;3.162;2023-03-15T07:20:08;4.03;;;3.20;;
18194;SDS011;9223;50.988;3.162;2023-03-15T07:26:12;7.80;;;3.78;;
18194;SDS011;9223;50.988;3.162;2023-03-15T07:32:15;6.78;;;4.07;;
18194;SDS011;9223;50.988;3.162;2023-03-15T07:38:21;5.32;;;4.13;;
18194;SDS011;9223;50.988;3.162;2023-03-15T07:44:24;6.95;;;4.43;;
18194;SDS011;9223;50.988;3.162;2023-03-15T07:50:28;8.80;;;6.70;;
18194;SDS011;9223;50.988;3.162;2023-03-15T07:56:32;5.75;;;3.10;;
18194;SDS011;9223;50.988;3.162;2023-03-15T08:02:36;6.80;;;3.30;;
18194;SDS011;9223;50.988;3.162;2023-03-15T08:08:39;4.57;;;3.00;;
18194;SDS011;9223;50.988;3.162;2023-03-15T08:14:44;4.90;;;2.88;;
18194;SDS011;9223;50.988;3.162;2023-03-15T08:20:48;5.07;;;2.85;;
18194;SDS011;9223;50.988;3.162;2023-03-15T08:26:51;4.22;;;2.67;;
18194;SDS011;9223;50.988;3.162;2023-03-15T08:32:56;3.25;;;2.20;;
18194;SDS011;9223;50.988;3.162;2023-03-15T08:39:00;4.25;;;3.15;;
18194;SDS011;9223;50.988;3.162;2023-03-15T08:45:06;4.20;;;2.78;;
18194;SDS011;9223;50.988;3.162;2023-03-15T08:51:12;4.07;;;2.75;;
18194;SDS011;9223;50.988;3.162;2023-03-15T08:57:15;2.78;;;2.20;;
18194;SDS011;9223;50.988;3.162;2023-03-15T09:03:19;3.78;;;2.63;;
18194;SDS011;9223;50.988;3.162;2023-03-15T09:09:24;2.63;;;2.42;;
18194;SDS011;9223;50.988;3.162;2023-03-15T09:15:28;4.35;;;2.53;;
18194;SDS011;9223;50.988;3.162;2023-03-15T09:21:31;4.05;;;2.63;;
18194;SDS011;9223;50.988;3.162;2023-03-15T09:27:36;3.25;;;2.65;;
18194;SDS011;9223;50.988;3.162;2023-03-15T09:33:40;4.13;;;2.40;;
18194;SDS011;9223;50.988;3.162;2023-03-15T09:39:46;2.35;;;1.95;;
18194;SDS011;9223;50.988;3.162;2023-03-15T09:45:54;3.13;;;2.08;;
18194;SDS011;9223;50.988;3.162;2023-03-15T09:52:07;5.30;;;2.55;;
18194;SDS011;9223;50.988;3.162;2023-03-15T09:58:12;4.90;;;2.30;;
18194;SDS011;9223;50.988;3.162;2023-03-15T10:04:22;3.77;;;2.60;;
18194;SDS011;9223;50.988;3.162;2023-03-15T10:10:30;2.83;;;2.13;;
18194;SDS011;9223;50.988;3.162;2023-03-15T10:16:38;4.72;;;2.40;;
18194;SDS011;9223;50.988;3.162;2023-03-15T10:22:46;4.25;;;2.35;;
18194;SDS011;9223;50.988;3.162;2023-03-15T10:28:51;3.97;;;2.42;;
18194;SDS011;9223;50.988;3.162;2023-03-15T10:34:55;2.92;;;1.67;;
18194;SDS011;9223;50.988;3.162;2023-03-15T10:41:00;2.38;;;2.00;;
18194;SDS011;9223;50.988;3.162;2023-03-15T10:47:11;4.25;;;1.92;;
18194;SDS011;9223;50.988;3.162;2023-03-15T10:53:24;3.08;;;2.10;;
18194;SDS011;9223;50.988;3.162;2023-03-15T10:59:29;4.38;;;2.40;;
18194;SDS011;9223;50.988;3.162;2023-03-15T11:05:38;3.40;;;2.00;;
18194;SDS011;9223;50.988;3.162;2023-03-15T11:11:52;2.90;;;2.40;;
18194;SDS011;9223;50.988;3.162;2023-03-15T11:17:57;4.03;;;2.42;;
18194;SDS011;9223;50.988;3.162;2023-03-15T11:24:01;3.90;;;2.17;;
18194;SDS011;9223;50.988;3.162;2023-03-15T11:30:11;5.50;;;2.55;;
18194;SDS011;9223;50.988;3.162;2023-03-15T11:36:18;4.85;;;3.00;;
18194;SDS011;9223;50.988;3.162;2023-03-15T11:42:23;4.82;;;3.33;;
18194;SDS011;9223;50.988;3.162;2023-03-15T11:48:30;3.47;;;3.17;;
18194;SDS011;9223;50.988;3.162;2023-03-15T11:54:38;2.40;;;2.20;;
18194;SDS011;9223;50.988;3.162;2023-03-15T12:06:54;4.47;;;4.07;;
18194;SDS011;9223;50.988;3.162;2023-03-15T12:13:04;4.10;;;3.40;;
18194;SDS011;9223;50.988;3.162;2023-03-15T12:19:09;3.47;;;2.22;;
18194;SDS011;9223;50.988;3.162;2023-03-15T12:25:13;2.22;;;1.35;;
18194;SDS011;9223;50.988;3.162;2023-03-15T12:31:19;2.22;;;2.03;;
18194;SDS011;9223;50.988;3.162;2023-03-15T12:37:23;2.50;;;2.00;;
18194;SDS011;9223;50.988;3.162;2023-03-15T12:43:36;2.40;;;1.90;;
18194;SDS011;9223;50.988;3.162;2023-03-15T12:49:42;2.57;;;2.37;;
18194;SDS011;9223;50.988;3.162;2023-03-15T12:55:46;2.35;;;1.75;;
18194;SDS011;9223;50.988;3.162;2023-03-15T13:01:52;2.50;;;2.05;;
18194;SDS011;9223;50.988;3.162;2023-03-15T13:08:00;2.38;;;2.05;;
18194;SDS011;9223;50.988;3.162;2023-03-15T13:14:10;4.88;;;2.40;;
18194;SDS011;9223;50.988;3.162;2023-03-15T13:20:25;4.82;;;2.80;;
18194;SDS011;9223;50.988;3.162;2023-03-15T13:26:40;3.05;;;2.33;;
18194;SDS011;9223;50.988;3.162;2023-03-15T13:32:45;2.70;;;2.47;;
18194;SDS011;9223;50.988;3.162;2023-03-15T13:38:49;3.50;;;1.60;;
18194;SDS011;9223;50.988;3.162;2023-03-15T13:45:13;4.43;;;2.10;;
18194;SDS011;9223;50.988;3.162;2023-03-15T13:51:19;2.63;;;1.98;;
18194;SDS011;9223;50.988;3.162;2023-03-15T13:57:24;3.25;;;2.08;;
18194;SDS011;9223;50.988;3.162;2023-03-15T14:03:28;4.75;;;2.33;;
18194;SDS011;9223;50.988;3.162;2023-03-15T14:09:33;3.22;;;1.95;;
18194;SDS011;9223;50.988;3.162;2023-03-15T14:15:40;2.75;;;1.52;;
18194;SDS011;9223;50.988;3.162;2023-03-15T14:21:46;4.78;;;1.67;;
18194;SDS011;9223;50.988;3.162;2023-03-15T14:27:50;3.13;;;1.60;;
18194;SDS011;9223;50.988;3.162;2023-03-15T14:33:55;2.60;;;1.20;;
18194;SDS011;9223;50.988;3.162;2023-03-15T14:40:06;3.47;;;1.33;;
18194;SDS011;9223;50.988;3.162;2023-03-15T14:46:15;2.85;;;1.30;;
18194;SDS011;9223;50.988;3.162;2023-03-15T14:52:19;4.28;;;1.98;;
18194;SDS011;9223;50.988;3.162;2023-03-15T14:58:28;3.88;;;1.98;;
18194;SDS011;9223;50.988;3.162;2023-03-15T15:04:32;2.17;;;1.80;;
18194;SDS011;9223;50.988;3.162;2023-03-15T15:10:38;1.67;;;1.00;;
18194;SDS011;9223;50.988;3.162;2023-03-15T15:16:43;2.10;;;1.60;;
18194;SDS011;9223;50.988;3.162;2023-03-15T15:22:47;3.38;;;1.17;;
18194;SDS011;9223;50.988;3.162;2023-03-15T15:28:51;2.45;;;1.40;;
18194;SDS011;9223;50.988;3.162;2023-03-15T15:34:58;2.17;;;1.80;;
18194;SDS011;9223;50.988;3.162;2023-03-15T15:41:03;2.75;;;1.48;;
18194;SDS011;9223;50.988;3.162;2023-03-15T15:47:06;2.67;;;1.70;;
18194;SDS011;9223;50.988;3.162;2023-03-15T15:53:12;2.85;;;1.42;;
18194;SDS011;9223;50.988;3.162;2023-03-15T15:59:18;2.33;;;1.48;;
18194;SDS011;9223;50.988;3.162;2023-03-15T16:05:22;1.80;;;1.70;;
18194;SDS011;9223;50.988;3.162;2023-03-15T16:11:27;2.17;;;1.35;;
18194;SDS011;9223;50.988;3.162;2023-03-15T16:17:31;3.23;;;2.00;;
18194;SDS011;9223;50.988;3.162;2023-03-15T16:23:34;2.20;;;1.30;;
18194;SDS011;9223;50.988;3.162;2023-03-15T16:29:41;2.38;;;1.60;;
18194;SDS011;9223;50.988;3.162;2023-03-15T16:35:46;2.50;;;1.30;;
18194;SDS011;9223;50.988;3.162;2023-03-15T16:41:50;21.85;;;13.40;;
18194;SDS011;9223;50.988;3.162;2023-03-15T16:47:55;44.25;;;26.98;;
18194;SDS011;9223;50.988;3.162;2023-03-15T16:53:59;10.63;;;7.03;;
18194;SDS011;9223;50.988;3.162;2023-03-15T17:00:18;23.52;;;13.65;;
18194;SDS011;9223;50.988;3.162;2023-03-15T17:06:23;7.97;;;6.05;;
18194;SDS011;9223;50.988;3.162;2023-03-15T17:12:28;12.52;;;8.82;;
18194;SDS011;9223;50.988;3.162;2023-03-15T17:18:32;5.47;;;4.10;;
18194;SDS011;9223;50.988;3.162;2023-03-15T17:24:38;5.93;;;5.32;;
18194;SDS011;9223;50.988;3.162;2023-03-15T17:30:42;5.88;;;4.70;;
18194;SDS011;9223;50.988;3.162;2023-03-15T17:36:46;5.43;;;4.00;;
18194;SDS011;9223;50.988;3.162;2023-03-15T17:42:51;3.67;;;2.20;;
18194;SDS011;9223;50.988;3.162;2023-03-15T17:48:55;2.88;;;2.05;;
18194;SDS011;9223;50.988;3.162;2023-03-15T17:54:59;3.20;;;2.30;;
18194;SDS011;9223;50.988;3.162;2023-03-15T18:01:04;3.92;;;3.03;;
18194;SDS011;9223;50.988;3.162;2023-03-15T18:07:10;4.80;;;2.30;;
18194;SDS011;9223;50.988;3.162;2023-03-15T18:13:15;3.83;;;2.22;;
18194;SDS011;9223;50.988;3.162;2023-03-15T18:19:21;3.78;;;2.83;;
18194;SDS011;9223;50.988;3.162;2023-03-15T18:25:26;3.53;;;3.03;;
18194;SDS011;9223;50.988;3.162;2023-03-15T18:31:31;2.75;;;2.50;;
18194;SDS011;9223;50.988;3.162;2023-03-15T18:37:38;3.58;;;2.60;;
18194;SDS011;9223;50.988;3.162;2023-03-15T18:43:41;5.13;;;2.80;;
18194;SDS011;9223;50.988;3.162;2023-03-15T18:49:49;3.17;;;2.88;;
18194;SDS011;9223;50.988;3.162;2023-03-15T18:56:06;6.50;;;3.35;;
18194;SDS011;9223;50.988;3.162;2023-03-15T19:02:10;5.13;;;3.90;;
18194;SDS011;9223;50.988;3.162;2023-03-15T19:08:14;4.40;;;3.30;;
18194;SDS011;9223;50.988;3.162;2023-03-15T19:14:19;5.32;;;3.55;;
18194;SDS011;9223;50.988;3.162;2023-03-15T19:20:26;4.53;;;3.55;;
18194;SDS011;9223;50.988;3.162;2023-03-15T19:26:29;6.32;;;3.75;;
18194;SDS011;9223;50.988;3.162;2023-03-15T19:32:34;4.05;;;3.17;;
18194;SDS011;9223;50.988;3.162;2023-03-15T19:38:38;5.85;;;3.42;;
18194;SDS011;9223;50.988;3.162;2023-03-15T19:44:42;5.78;;;3.22;;
18194;SDS011;9223;50.988;3.162;2023-03-15T19:50:49;4.53;;;3.00;;
18194;SDS011;9223;50.988;3.162;2023-03-15T19:56:52;4.80;;;3.30;;
18194;SDS011;9223;50.988;3.162;2023-03-15T20:02:58;7.40;;;3.60;;
18194;SDS011;9223;50.988;3.162;2023-03-15T20:09:04;6.70;;;3.67;;
18194;SDS011;9223;50.988;3.162;2023-03-15T20:15:08;5.43;;;3.63;;
18194;SDS011;9223;50.988;3.162;2023-03-15T20:21:12;5.88;;;3.75;;
18194;SDS011;9223;50.988;3.162;2023-03-15T20:27:17;5.53;;;4.32;;
18194;SDS011;9223;50.988;3.162;2023-03-15T20:33:21;4.93;;;4.43;;
18194;SDS011;9223;50.988;3.162;2023-03-15T20:39:25;7.90;;;4.68;;
18194;SDS011;9223;50.988;3.162;2023-03-15T20:45:30;8.40;;;5.05;;
18194;SDS011;9223;50.988;3.162;2023-03-15T20:51:33;5.50;;;4.00;;
18194;SDS011;9223;50.988;3.162;2023-03-15T20:57:39;6.47;;;4.60;;
18194;SDS011;9223;50.988;3.162;2023-03-15T21:03:47;6.70;;;4.03;;
18194;SDS011;9223;50.988;3.162;2023-03-15T21:09:55;4.47;;;3.88;;
18194;SDS011;9223;50.988;3.162;2023-03-15T21:16:00;5.47;;;3.92;;
18194;SDS011;9223;50.988;3.162;2023-03-15T21:22:06;5.68;;;3.60;;
18194;SDS011;9223;50.988;3.162;2023-03-15T21:28:12;4.82;;;3.67;;
18194;SDS011;9223;50.988;3.162;2023-03-15T21:34:16;5.90;;;3.80;;
18194;SDS011;9223;50.988;3.162;2023-03-15T21:40:23;7.80;;;3.90;;
18194;SDS011;9223;50.988;3.162;2023-03-15T21:46:27;5.10;;;4.25;;
18194;SDS011;9223;50.988;3.162;2023-03-15T21:52:31;5.57;;;4.15;;
18194;SDS011;9223;50.988;3.162;2023-03-15T21:58:36;6.55;;;4.15;;
18194;SDS011;9223;50.988;3.162;2023-03-15T22:04:40;6.88;;;4.18;;
18194;SDS011;9223;50.988;3.162;2023-03-15T22:10:44;5.15;;;4.45;;
18194;SDS011;9223;50.988;3.162;2023-03-15T22:16:49;5.20;;;4.15;;
18194;SDS011;9223;50.988;3.162;2023-03-15T22:22:53;7.57;;;4.70;;
18194;SDS011;9223;50.988;3.162;2023-03-15T22:28:56;6.97;;;5.03;;
18194;SDS011;9223;50.988;3.162;2023-03-15T22:35:01;7.55;;;5.13;;
18194;SDS011;9223;50.988;3.162;2023-03-15T22:41:05;9.05;;;5.13;;
18194;SDS011;9223;50.988;3.162;2023-03-15T22:47:09;8.07;;;5.68;;
18194;SDS011;9223;50.988;3.162;2023-03-15T22:53:14;7.90;;;4.68;;
18194;SDS011;9223;50.988;3.162;2023-03-15T22:59:17;6.80;;;5.20;;
18194;SDS011;9223;50.988;3.162;2023-03-15T23:05:21;6.57;;;5.18;;
18194;SDS011;9223;50.988;3.162;2023-03-15T23:11:27;6.13;;;4.60;;
18194;SDS011;9223;50.988;3.162;2023-03-15T23:17:30;9.30;;;5.70;;
18194;SDS011;9223;50.988;3.162;2023-03-15T23:23:34;6.07;;;4.80;;
18194;SDS011;9223;50.988;3.162;2023-03-15T23:29:40;6.25;;;4.63;;
18194;SDS011;9223;50.988;3.162;2023-03-15T23:35:54;7.30;;;5.13;;
18194;SDS011;9223;50.988;3.162;2023-03-15T23:41:58;7.40;;;5.10;;
18194;SDS011;9223;50.988;3.162;2023-03-15T23:48:03;7.30;;;4.80;;
18194;SDS011;9223;50.988;3.162;2023-03-15T23:54:07;6.70;;;5.07;;
